sensor_id;sensor_type;location;lat;lon;timestamp;P1;durP1;ratioP1;P2;durP2;ratioP2
83241;SDS011;73133;47.848;9.000;2023-11-19T04:00:32;6.13;;;2.72;;
83241;SDS011;73133;47.848;9.000;2023-11-19T04:03:00;5.15;;;3.13;;
83241;SDS011;73133;47.848;9.000;2023-11-19T04:05:29;7.65;;;5.28;;
83241;SDS011;73133;47.848;9.000;2023-11-19T04:08:03;5.95;;;4.72;;
83241;SDS011;73133;47.848;9.000;2023-11-19T04:10:40;7.68;;;4.90;;
83241;SDS011;73133;47.848;9.000;2023-11-19T04:13:08;5.53;;;3.78;;
83241;SDS011;73133;47.848;9.000;2023-11-19T04:15:36;11.77;;;7.63;;
83241;SDS011;73133;47.848;9.000;2023-11-19T04:18:04;11.45;;;6.55;;
83241;SDS011;73133;47.848;9.000;2023-11-19T04:20:34;11.65;;;5.88;;
83241;SDS011;73133;47.848;9.000;2023-11-19T04:25:58;11.52;;;4.75;;
83241;SDS011;73133;47.848;9.000;2023-11-19T04:28:35;8.38;;;5.07;;
83241;SDS011;73133;47.848;9.000;2023-11-19T04:31:08;16.13;;;6.25;;
83241;SDS011;73133;47.848;9.000;2023-11-19T04:33:37;9.00;;;6.00;;
83241;SDS011;73133;47.848;9.000;2023-11-19T04:36:11;11.77;;;5.07;;
83241;SDS011;73133;47.848;9.000;2023-11-19T04:38:46;6.78;;;4.25;;
83241;SDS011;73133;47.848;9.000;2023-11-19T04:41:14;4.03;;;3.63;;
83241;SDS011;73133;47.848;9.000;2023-11-19T04:43:43;4.45;;;3.80;;
83241;SDS011;73133;47.848;9.000;2023-11-19T04:46:13;6.50;;;4.60;;
83241;SDS011;73133;47.848;9.000;2023-11-19T04:48:49;7.85;;;4.40;;
83241;SDS011;73133;47.848;9.000;2023-11-19T04:51:15;6.65;;;4.57;;
83241;SDS011;73133;47.848;9.000;2023-11-19T04:53:43;4.35;;;3.90;;
83241;SDS011;73133;47.848;9.000;2023-11-19T04:56:11;4.63;;;4.22;;
83241;SDS011;73133;47.848;9.000;2023-11-19T04:58:38;9.27;;;4.13;;
83241;SDS011;73133;47.848;9.000;2023-11-19T05:01:24;4.68;;;4.20;;
83241;SDS011;73133;47.848;9.000;2023-11-19T05:03:59;5.93;;;3.97;;
83241;SDS011;73133;47.848;9.000;2023-11-19T05:06:45;5.45;;;4.45;;
83241;SDS011;73133;47.848;9.000;2023-11-19T05:09:23;5.40;;;4.18;;
83241;SDS011;73133;47.848;9.000;2023-11-19T05:11:54;9.88;;;4.82;;
83241;SDS011;73133;47.848;9.000;2023-11-19T05:14:28;4.82;;;4.38;;
83241;SDS011;73133;47.848;9.000;2023-11-19T05:17:02;5.45;;;4.40;;
83241;SDS011;73133;47.848;9.000;2023-11-19T05:19:30;10.90;;;5.88;;
83241;SDS011;73133;47.848;9.000;2023-11-19T05:22:08;12.82;;;6.30;;
83241;SDS011;73133;47.848;9.000;2023-11-19T05:24:45;7.47;;;6.45;;
83241;SDS011;73133;47.848;9.000;2023-11-19T05:27:13;7.43;;;4.90;;
83241;SDS011;73133;47.848;9.000;2023-11-19T05:29:52;5.78;;;4.60;;
83241;SDS011;73133;47.848;9.000;2023-11-19T05:32:26;7.78;;;5.60;;
83241;SDS011;73133;47.848;9.000;2023-11-19T05:34:51;9.30;;;7.07;;
83241;SDS011;73133;47.848;9.000;2023-11-19T05:37:28;5.63;;;5.00;;
83241;SDS011;73133;47.848;9.000;2023-11-19T05:39:54;7.03;;;6.10;;
83241;SDS011;73133;47.848;9.000;2023-11-19T05:42:22;5.63;;;4.85;;
83241;SDS011;73133;47.848;9.000;2023-11-19T05:44:48;4.75;;;4.35;;
83241;SDS011;73133;47.848;9.000;2023-11-19T05:47:14;4.18;;;3.78;;
83241;SDS011;73133;47.848;9.000;2023-11-19T05:49:39;5.22;;;4.57;;
83241;SDS011;73133;47.848;9.000;2023-11-19T05:52:04;5.20;;;4.57;;
83241;SDS011;73133;47.848;9.000;2023-11-19T05:54:32;5.13;;;4.63;;
83241;SDS011;73133;47.848;9.000;2023-11-19T05:57:02;4.15;;;3.70;;
83241;SDS011;73133;47.848;9.000;2023-11-19T05:59:29;5.20;;;4.68;;
83241;SDS011;73133;47.848;9.000;2023-11-19T06:01:55;4.53;;;4.13;;
83241;SDS011;73133;47.848;9.000;2023-11-19T06:04:22;4.47;;;4.10;;
83241;SDS011;73133;47.848;9.000;2023-11-19T06:06:47;4.67;;;4.27;;
83241;SDS011;73133;47.848;9.000;2023-11-19T06:09:13;5.47;;;4.95;;
83241;SDS011;73133;47.848;9.000;2023-11-19T06:11:38;9.50;;;6.45;;
83241;SDS011;73133;47.848;9.000;2023-11-19T06:14:04;5.60;;;5.10;;
83241;SDS011;73133;47.848;9.000;2023-11-19T06:16:30;4.93;;;4.45;;
83241;SDS011;73133;47.848;9.000;2023-11-19T06:19:02;9.93;;;5.93;;
83241;SDS011;73133;47.848;9.000;2023-11-19T06:21:27;4.97;;;4.57;;
83241;SDS011;73133;47.848;9.000;2023-11-19T06:24:01;5.78;;;4.88;;
83241;SDS011;73133;47.848;9.000;2023-11-19T06:26:42;10.52;;;5.25;;
83241;SDS011;73133;47.848;9.000;2023-11-19T06:29:13;54.53;;;26.60;;
83241;SDS011;73133;47.848;9.000;2023-11-19T06:31:44;50.45;;;23.58;;
83241;SDS011;73133;47.848;9.000;2023-11-19T06:34:10;24.25;;;16.65;;
83241;SDS011;73133;47.848;9.000;2023-11-19T06:36:46;9.38;;;8.02;;
83241;SDS011;73133;47.848;9.000;2023-11-19T06:41:46;11.80;;;9.55;;
83241;SDS011;73133;47.848;9.000;2023-11-19T06:44:15;24.85;;;13.35;;
83241;SDS011;73133;47.848;9.000;2023-11-19T06:46:45;34.17;;;20.63;;
83241;SDS011;73133;47.848;9.000;2023-11-19T06:49:25;18.20;;;10.18;;
83241;SDS011;73133;47.848;9.000;2023-11-19T06:51:53;23.35;;;18.23;;
83241;SDS011;73133;47.848;9.000;2023-11-19T06:54:29;9.30;;;7.95;;
83241;SDS011;73133;47.848;9.000;2023-11-19T06:57:20;15.00;;;8.77;;
83241;SDS011;73133;47.848;9.000;2023-11-19T07:00:07;30.08;;;11.05;;
83241;SDS011;73133;47.848;9.000;2023-11-19T07:05:27;30.80;;;15.23;;
83241;SDS011;73133;47.848;9.000;2023-11-19T07:07:54;18.02;;;10.82;;
83241;SDS011;73133;47.848;9.000;2023-11-19T07:10:19;20.33;;;9.50;;
83241;SDS011;73133;47.848;9.000;2023-11-19T07:12:47;23.35;;;10.40;;
83241;SDS011;73133;47.848;9.000;2023-11-19T07:15:14;13.25;;;6.53;;
83241;SDS011;73133;47.848;9.000;2023-11-19T07:17:42;11.52;;;7.43;;
83241;SDS011;73133;47.848;9.000;2023-11-19T07:20:10;9.77;;;5.57;;
83241;SDS011;73133;47.848;9.000;2023-11-19T07:22:41;80.05;;;26.73;;
83241;SDS011;73133;47.848;9.000;2023-11-19T07:25:08;29.58;;;14.77;;
83241;SDS011;73133;47.848;9.000;2023-11-19T07:27:34;49.80;;;18.20;;
83241;SDS011;73133;47.848;9.000;2023-11-19T07:29:59;29.77;;;14.43;;
83241;SDS011;73133;47.848;9.000;2023-11-19T07:32:35;28.05;;;15.32;;
83241;SDS011;73133;47.848;9.000;2023-11-19T07:35:05;21.70;;;11.32;;
83241;SDS011;73133;47.848;9.000;2023-11-19T07:37:34;8.60;;;5.10;;
83241;SDS011;73133;47.848;9.000;2023-11-19T07:40:00;4.80;;;2.33;;
83241;SDS011;73133;47.848;9.000;2023-11-19T07:42:29;7.55;;;2.22;;
83241;SDS011;73133;47.848;9.000;2023-11-19T07:44:59;3.67;;;1.67;;
83241;SDS011;73133;47.848;9.000;2023-11-19T07:47:25;1.67;;;1.58;;
83241;SDS011;73133;47.848;9.000;2023-11-19T07:49:56;1.73;;;1.23;;
83241;SDS011;73133;47.848;9.000;2023-11-19T07:52:22;36.92;;;13.35;;
83241;SDS011;73133;47.848;9.000;2023-11-19T07:54:48;3.03;;;1.55;;
83241;SDS011;73133;47.848;9.000;2023-11-19T07:57:16;2.00;;;1.90;;
83241;SDS011;73133;47.848;9.000;2023-11-19T07:59:55;5.70;;;1.40;;
83241;SDS011;73133;47.848;9.000;2023-11-19T08:02:21;2.40;;;1.42;;
83241;SDS011;73133;47.848;9.000;2023-11-19T08:04:48;7.38;;;3.17;;
83241;SDS011;73133;47.848;9.000;2023-11-19T08:07:19;6.72;;;3.67;;
83241;SDS011;73133;47.848;9.000;2023-11-19T08:09:52;10.07;;;5.03;;
83241;SDS011;73133;47.848;9.000;2023-11-19T08:12:24;10.90;;;7.30;;
83241;SDS011;73133;47.848;9.000;2023-11-19T08:15:04;9.65;;;4.63;;
83241;SDS011;73133;47.848;9.000;2023-11-19T08:17:33;15.85;;;5.05;;
83241;SDS011;73133;47.848;9.000;2023-11-19T08:20:18;8.30;;;5.03;;
83241;SDS011;73133;47.848;9.000;2023-11-19T08:23:12;6.32;;;3.67;;
83241;SDS011;73133;47.848;9.000;2023-11-19T08:26:04;5.07;;;2.17;;
83241;SDS011;73133;47.848;9.000;2023-11-19T08:32:10;8.10;;;3.65;;
83241;SDS011;73133;47.848;9.000;2023-11-19T08:38:25;7.00;;;3.03;;
83241;SDS011;73133;47.848;9.000;2023-11-19T08:40:51;9.35;;;4.47;;
83241;SDS011;73133;47.848;9.000;2023-11-19T08:43:17;26.60;;;8.05;;
83241;SDS011;73133;47.848;9.000;2023-11-19T08:45:42;28.73;;;8.43;;
83241;SDS011;73133;47.848;9.000;2023-11-19T08:50:33;9.07;;;3.37;;
83241;SDS011;73133;47.848;9.000;2023-11-19T08:52:59;7.28;;;3.88;;
83241;SDS011;73133;47.848;9.000;2023-11-19T08:55:25;12.03;;;4.17;;
83241;SDS011;73133;47.848;9.000;2023-11-19T08:57:51;10.82;;;7.25;;
83241;SDS011;73133;47.848;9.000;2023-11-19T09:00:16;4.68;;;3.85;;
83241;SDS011;73133;47.848;9.000;2023-11-19T09:02:43;12.93;;;4.43;;
83241;SDS011;73133;47.848;9.000;2023-11-19T09:05:08;2.80;;;2.22;;
83241;SDS011;73133;47.848;9.000;2023-11-19T09:07:33;5.47;;;3.85;;
83241;SDS011;73133;47.848;9.000;2023-11-19T09:09:59;6.05;;;4.75;;
83241;SDS011;73133;47.848;9.000;2023-11-19T09:12:24;6.32;;;2.28;;
83241;SDS011;73133;47.848;9.000;2023-11-19T09:14:50;2.72;;;1.88;;
83241;SDS011;73133;47.848;9.000;2023-11-19T09:17:15;2.28;;;1.40;;
83241;SDS011;73133;47.848;9.000;2023-11-19T09:19:42;8.77;;;4.00;;
83241;SDS011;73133;47.848;9.000;2023-11-19T09:24:33;4.63;;;2.83;;
83241;SDS011;73133;47.848;9.000;2023-11-19T09:26:58;2.63;;;1.40;;
83241;SDS011;73133;47.848;9.000;2023-11-19T09:29:23;2.03;;;1.48;;
83241;SDS011;73133;47.848;9.000;2023-11-19T09:31:49;3.53;;;2.60;;
83241;SDS011;73133;47.848;9.000;2023-11-19T09:34:14;6.55;;;2.92;;
83241;SDS011;73133;47.848;9.000;2023-11-19T09:36:39;2.27;;;1.63;;
83241;SDS011;73133;47.848;9.000;2023-11-19T09:39:09;6.28;;;2.90;;
83241;SDS011;73133;47.848;9.000;2023-11-19T09:41:40;4.13;;;1.52;;
83241;SDS011;73133;47.848;9.000;2023-11-19T09:44:07;5.45;;;2.63;;
83241;SDS011;73133;47.848;9.000;2023-11-19T09:46:33;12.98;;;4.45;;
83241;SDS011;73133;47.848;9.000;2023-11-19T09:48:59;8.38;;;2.50;;
83241;SDS011;73133;47.848;9.000;2023-11-19T09:51:27;3.90;;;1.98;;
83241;SDS011;73133;47.848;9.000;2023-11-19T09:56:18;1.25;;;1.02;;
83241;SDS011;73133;47.848;9.000;2023-11-19T09:58:44;4.60;;;0.90;;
83241;SDS011;73133;47.848;9.000;2023-11-19T10:01:09;0.77;;;0.50;;
83241;SDS011;73133;47.848;9.000;2023-11-19T10:03:37;0.95;;;0.70;;
83241;SDS011;73133;47.848;9.000;2023-11-19T10:06:07;4.88;;;1.02;;
83241;SDS011;73133;47.848;9.000;2023-11-19T10:08:33;2.55;;;1.95;;
83241;SDS011;73133;47.848;9.000;2023-11-19T10:11:01;13.02;;;6.03;;
83241;SDS011;73133;47.848;9.000;2023-11-19T10:13:27;5.10;;;2.58;;
83241;SDS011;73133;47.848;9.000;2023-11-19T10:15:53;10.60;;;3.30;;
83241;SDS011;73133;47.848;9.000;2023-11-19T10:18:23;11.00;;;4.90;;
83241;SDS011;73133;47.848;9.000;2023-11-19T10:20:52;3.83;;;2.42;;
83241;SDS011;73133;47.848;9.000;2023-11-19T10:23:18;9.95;;;4.20;;
83241;SDS011;73133;47.848;9.000;2023-11-19T10:25:44;3.78;;;2.83;;
83241;SDS011;73133;47.848;9.000;2023-11-19T10:28:09;10.90;;;4.10;;
83241;SDS011;73133;47.848;9.000;2023-11-19T10:33:06;4.40;;;2.50;;
83241;SDS011;73133;47.848;9.000;2023-11-19T10:35:56;6.10;;;2.20;;
83241;SDS011;73133;47.848;9.000;2023-11-19T10:38:26;12.55;;;4.40;;
83241;SDS011;73133;47.848;9.000;2023-11-19T10:40:51;7.13;;;3.78;;
83241;SDS011;73133;47.848;9.000;2023-11-19T10:43:18;6.80;;;2.72;;
83241;SDS011;73133;47.848;9.000;2023-11-19T10:45:44;3.60;;;1.67;;
83241;SDS011;73133;47.848;9.000;2023-11-19T10:48:10;11.85;;;5.05;;
83241;SDS011;73133;47.848;9.000;2023-11-19T10:50:37;8.35;;;3.47;;
83241;SDS011;73133;47.848;9.000;2023-11-19T10:53:05;5.97;;;4.35;;
83241;SDS011;73133;47.848;9.000;2023-11-19T10:55:36;13.20;;;4.78;;
83241;SDS011;73133;47.848;9.000;2023-11-19T10:58:06;16.05;;;7.97;;
83241;SDS011;73133;47.848;9.000;2023-11-19T11:03:25;12.75;;;5.28;;
83241;SDS011;73133;47.848;9.000;2023-11-19T11:05:54;15.82;;;10.70;;
83241;SDS011;73133;47.848;9.000;2023-11-19T11:08:21;6.55;;;2.75;;
83241;SDS011;73133;47.848;9.000;2023-11-19T11:13:19;8.80;;;1.15;;
83241;SDS011;73133;47.848;9.000;2023-11-19T11:18:12;2.33;;;1.50;;
83241;SDS011;73133;47.848;9.000;2023-11-19T11:20:38;2.75;;;1.17;;
83241;SDS011;73133;47.848;9.000;2023-11-19T11:37:24;8.95;;;2.42;;
83241;SDS011;73133;47.848;9.000;2023-11-19T11:39:33;14.60;;;4.07;;
83241;SDS011;73133;47.848;9.000;2023-11-19T11:45:15;1.88;;;1.65;;
83241;SDS011;73133;47.848;9.000;2023-11-19T11:50:10;3.88;;;2.80;;
83241;SDS011;73133;47.848;9.000;2023-11-19T11:56:05;3.22;;;1.55;;
83241;SDS011;73133;47.848;9.000;2023-11-19T11:58:20;1.50;;;0.70;;
83241;SDS011;73133;47.848;9.000;2023-11-19T12:00:50;6.53;;;1.02;;
83241;SDS011;73133;47.848;9.000;2023-11-19T12:03:18;5.85;;;2.50;;
83241;SDS011;73133;47.848;9.000;2023-11-19T12:05:47;1.88;;;0.95;;
83241;SDS011;73133;47.848;9.000;2023-11-19T12:08:13;2.88;;;1.67;;
83241;SDS011;73133;47.848;9.000;2023-11-19T12:10:47;3.65;;;1.25;;
83241;SDS011;73133;47.848;9.000;2023-11-19T12:13:13;2.33;;;1.52;;
83241;SDS011;73133;47.848;9.000;2023-11-19T12:18:23;1.95;;;1.33;;
83241;SDS011;73133;47.848;9.000;2023-11-19T12:20:51;3.33;;;1.90;;
83241;SDS011;73133;47.848;9.000;2023-11-19T12:23:16;12.23;;;5.13;;
83241;SDS011;73133;47.848;9.000;2023-11-19T12:25:42;5.10;;;2.15;;
83241;SDS011;73133;47.848;9.000;2023-11-19T12:28:13;5.30;;;3.08;;
83241;SDS011;73133;47.848;9.000;2023-11-19T12:30:41;1.50;;;0.77;;
83241;SDS011;73133;47.848;9.000;2023-11-19T12:33:09;2.33;;;1.10;;
83241;SDS011;73133;47.848;9.000;2023-11-19T12:35:42;3.22;;;2.20;;
83241;SDS011;73133;47.848;9.000;2023-11-19T12:38:18;10.52;;;6.30;;
83241;SDS011;73133;47.848;9.000;2023-11-19T12:40:47;7.35;;;4.78;;
83241;SDS011;73133;47.848;9.000;2023-11-19T12:43:27;8.52;;;4.65;;
83241;SDS011;73133;47.848;9.000;2023-11-19T12:45:52;2.23;;;1.90;;
83241;SDS011;73133;47.848;9.000;2023-11-19T12:48:17;9.93;;;4.63;;
83241;SDS011;73133;47.848;9.000;2023-11-19T12:53:21;21.33;;;19.13;;
83241;SDS011;73133;47.848;9.000;2023-11-19T12:55:48;24.92;;;22.58;;
83241;SDS011;73133;47.848;9.000;2023-11-19T13:01:01;3.70;;;2.88;;
83241;SDS011;73133;47.848;9.000;2023-11-19T13:03:33;6.97;;;5.45;;
83241;SDS011;73133;47.848;9.000;2023-11-19T13:06:02;13.85;;;9.18;;
83241;SDS011;73133;47.848;9.000;2023-11-19T13:08:35;4.03;;;3.58;;
83241;SDS011;73133;47.848;9.000;2023-11-19T13:11:12;8.05;;;7.32;;
83241;SDS011;73133;47.848;9.000;2023-11-19T13:13:54;4.82;;;4.13;;
83241;SDS011;73133;47.848;9.000;2023-11-19T13:16:19;6.60;;;3.83;;
83241;SDS011;73133;47.848;9.000;2023-11-19T13:21:10;4.93;;;1.33;;
83241;SDS011;73133;47.848;9.000;2023-11-19T13:23:35;13.60;;;11.77;;
83241;SDS011;73133;47.848;9.000;2023-11-19T13:26:01;8.48;;;4.57;;
83241;SDS011;73133;47.848;9.000;2023-11-19T13:28:26;5.23;;;4.43;;
83241;SDS011;73133;47.848;9.000;2023-11-19T13:30:52;16.13;;;13.25;;
83241;SDS011;73133;47.848;9.000;2023-11-19T13:35:43;5.05;;;2.83;;
83241;SDS011;73133;47.848;9.000;2023-11-19T13:38:09;2.58;;;2.38;;
83241;SDS011;73133;47.848;9.000;2023-11-19T13:43:00;4.27;;;3.63;;
83241;SDS011;73133;47.848;9.000;2023-11-19T13:45:25;7.38;;;6.05;;
83241;SDS011;73133;47.848;9.000;2023-11-19T13:47:51;7.88;;;5.20;;
83241;SDS011;73133;47.848;9.000;2023-11-19T13:50:16;8.67;;;2.83;;
83241;SDS011;73133;47.848;9.000;2023-11-19T13:52:43;3.20;;;2.80;;
83241;SDS011;73133;47.848;9.000;2023-11-19T13:55:11;11.73;;;9.98;;
83241;SDS011;73133;47.848;9.000;2023-11-19T13:57:41;6.70;;;6.10;;
83241;SDS011;73133;47.848;9.000;2023-11-19T14:00:07;7.35;;;3.83;;
83241;SDS011;73133;47.848;9.000;2023-11-19T14:02:48;4.25;;;1.88;;
83241;SDS011;73133;47.848;9.000;2023-11-19T14:07:42;0.60;;;0.30;;
83241;SDS011;73133;47.848;9.000;2023-11-19T14:10:09;5.32;;;0.93;;
83241;SDS011;73133;47.848;9.000;2023-11-19T14:12:36;0.95;;;0.77;;
83241;SDS011;73133;47.848;9.000;2023-11-19T14:15:04;1.05;;;0.68;;
83241;SDS011;73133;47.848;9.000;2023-11-19T14:17:39;1.25;;;1.10;;
83241;SDS011;73133;47.848;9.000;2023-11-19T14:20:05;1.33;;;0.40;;
83241;SDS011;73133;47.848;9.000;2023-11-19T14:22:40;2.75;;;1.40;;
83241;SDS011;73133;47.848;9.000;2023-11-19T14:25:05;4.78;;;2.38;;
83241;SDS011;73133;47.848;9.000;2023-11-19T14:27:34;4.70;;;1.52;;
83241;SDS011;73133;47.848;9.000;2023-11-19T14:30:01;18.58;;;7.00;;
83241;SDS011;73133;47.848;9.000;2023-11-19T14:32:26;2.28;;;1.23;;
83241;SDS011;73133;47.848;9.000;2023-11-19T14:34:54;5.93;;;4.10;;
83241;SDS011;73133;47.848;9.000;2023-11-19T14:37:22;4.50;;;1.90;;
83241;SDS011;73133;47.848;9.000;2023-11-19T14:39:47;3.53;;;1.70;;
83241;SDS011;73133;47.848;9.000;2023-11-19T14:42:15;7.70;;;4.90;;
83241;SDS011;73133;47.848;9.000;2023-11-19T14:44:41;3.03;;;2.58;;
83241;SDS011;73133;47.848;9.000;2023-11-19T14:47:06;4.00;;;0.63;;
83241;SDS011;73133;47.848;9.000;2023-11-19T14:49:32;3.22;;;2.17;;
83241;SDS011;73133;47.848;9.000;2023-11-19T14:51:59;7.38;;;5.40;;
83241;SDS011;73133;47.848;9.000;2023-11-19T14:54:25;4.47;;;3.20;;
83241;SDS011;73133;47.848;9.000;2023-11-19T14:56:51;9.25;;;5.90;;
83241;SDS011;73133;47.848;9.000;2023-11-19T14:59:17;9.65;;;7.15;;
83241;SDS011;73133;47.848;9.000;2023-11-19T15:01:44;7.30;;;4.20;;
83241;SDS011;73133;47.848;9.000;2023-11-19T15:04:10;5.60;;;1.00;;
83241;SDS011;73133;47.848;9.000;2023-11-19T15:06:36;11.13;;;9.93;;
83241;SDS011;73133;47.848;9.000;2023-11-19T15:11:27;0.80;;;0.70;;
83241;SDS011;73133;47.848;9.000;2023-11-19T15:16:18;6.95;;;2.15;;
83241;SDS011;73133;47.848;9.000;2023-11-19T15:18:50;2.13;;;1.20;;
83241;SDS011;73133;47.848;9.000;2023-11-19T15:21:16;6.78;;;2.13;;
83241;SDS011;73133;47.848;9.000;2023-11-19T15:26:07;3.20;;;1.37;;
83241;SDS011;73133;47.848;9.000;2023-11-19T15:28:35;0.40;;;0.40;;
83241;SDS011;73133;47.848;9.000;2023-11-19T15:33:26;0.93;;;0.40;;
83241;SDS011;73133;47.848;9.000;2023-11-19T15:38:16;0.93;;;0.40;;
83241;SDS011;73133;47.848;9.000;2023-11-19T15:43:08;0.88;;;0.65;;
83241;SDS011;73133;47.848;9.000;2023-11-19T15:48:04;0.77;;;0.55;;
83241;SDS011;73133;47.848;9.000;2023-11-19T15:50:30;1.88;;;1.15;;
83241;SDS011;73133;47.848;9.000;2023-11-19T15:55:21;1.67;;;0.50;;
83241;SDS011;73133;47.848;9.000;2023-11-19T15:57:47;1.10;;;0.90;;
83241;SDS011;73133;47.848;9.000;2023-11-19T16:02:41;2.60;;;0.43;;
83241;SDS011;73133;47.848;9.000;2023-11-19T16:05:07;1.77;;;1.63;;
83241;SDS011;73133;47.848;9.000;2023-11-19T16:07:34;1.13;;;0.60;;
83241;SDS011;73133;47.848;9.000;2023-11-19T16:10:00;0.88;;;0.70;;
83241;SDS011;73133;47.848;9.000;2023-11-19T16:12:29;0.80;;;0.40;;
83241;SDS011;73133;47.848;9.000;2023-11-19T16:14:55;1.20;;;0.57;;
83241;SDS011;73133;47.848;9.000;2023-11-19T16:17:20;3.15;;;0.70;;
83241;SDS011;73133;47.848;9.000;2023-11-19T16:19:45;2.50;;;0.80;;
83241;SDS011;73133;47.848;9.000;2023-11-19T16:22:11;3.22;;;0.63;;
83241;SDS011;73133;47.848;9.000;2023-11-19T16:24:36;2.97;;;0.88;;
83241;SDS011;73133;47.848;9.000;2023-11-19T16:27:03;3.42;;;0.50;;
83241;SDS011;73133;47.848;9.000;2023-11-19T16:29:28;3.53;;;0.45;;
83241;SDS011;73133;47.848;9.000;2023-11-19T16:31:54;5.32;;;0.47;;
83241;SDS011;73133;47.848;9.000;2023-11-19T16:34:19;1.55;;;0.22;;
83241;SDS011;73133;47.848;9.000;2023-11-19T16:39:11;1.03;;;0.47;;
83241;SDS011;73133;47.848;9.000;2023-11-19T16:41:38;0.63;;;0.40;;
83241;SDS011;73133;47.848;9.000;2023-11-19T16:44:04;1.38;;;0.43;;
83241;SDS011;73133;47.848;9.000;2023-11-19T16:46:30;2.60;;;0.50;;
83241;SDS011;73133;47.848;9.000;2023-11-19T16:48:56;1.45;;;0.45;;
83241;SDS011;73133;47.848;9.000;2023-11-19T16:51:21;1.40;;;0.68;;
83241;SDS011;73133;47.848;9.000;2023-11-19T16:56:13;1.13;;;0.40;;
83241;SDS011;73133;47.848;9.000;2023-11-19T16:58:40;1.60;;;0.77;;
83241;SDS011;73133;47.848;9.000;2023-11-19T17:01:08;2.25;;;0.63;;
83241;SDS011;73133;47.848;9.000;2023-11-19T17:03:39;1.73;;;0.50;;
83241;SDS011;73133;47.848;9.000;2023-11-19T17:06:05;0.50;;;0.30;;
83241;SDS011;73133;47.848;9.000;2023-11-19T17:08:31;4.72;;;2.03;;
83241;SDS011;73133;47.848;9.000;2023-11-19T17:11:01;2.17;;;0.70;;
83241;SDS011;73133;47.848;9.000;2023-11-19T17:13:28;5.20;;;0.73;;
83241;SDS011;73133;47.848;9.000;2023-11-19T17:15:54;6.85;;;0.70;;
83241;SDS011;73133;47.848;9.000;2023-11-19T17:18:20;1.98;;;0.73;;
83241;SDS011;73133;47.848;9.000;2023-11-19T17:20:46;4.05;;;2.00;;
83241;SDS011;73133;47.848;9.000;2023-11-19T17:23:12;6.80;;;2.13;;
83241;SDS011;73133;47.848;9.000;2023-11-19T17:25:37;8.85;;;3.17;;
83241;SDS011;73133;47.848;9.000;2023-11-19T17:28:04;8.27;;;1.30;;
83241;SDS011;73133;47.848;9.000;2023-11-19T17:30:32;17.17;;;7.93;;
83241;SDS011;73133;47.848;9.000;2023-11-19T17:32:59;6.78;;;1.67;;
83241;SDS011;73133;47.848;9.000;2023-11-19T17:35:24;46.75;;;18.40;;
83241;SDS011;73133;47.848;9.000;2023-11-19T17:37:50;8.30;;;0.93;;
83241;SDS011;73133;47.848;9.000;2023-11-19T17:40:15;4.38;;;1.20;;
83241;SDS011;73133;47.848;9.000;2023-11-19T17:42:41;2.85;;;1.08;;
83241;SDS011;73133;47.848;9.000;2023-11-19T17:45:07;2.53;;;1.63;;
83241;SDS011;73133;47.848;9.000;2023-11-19T17:47:33;2.47;;;1.02;;
83241;SDS011;73133;47.848;9.000;2023-11-19T17:49:58;2.10;;;1.00;;
83241;SDS011;73133;47.848;9.000;2023-11-19T17:52:24;1.37;;;1.27;;
83241;SDS011;73133;47.848;9.000;2023-11-19T17:54:49;2.35;;;0.73;;
83241;SDS011;73133;47.848;9.000;2023-11-19T17:57:14;1.13;;;0.80;;
83241;SDS011;73133;47.848;9.000;2023-11-19T17:59:40;3.05;;;1.05;;
83241;SDS011;73133;47.848;9.000;2023-11-19T18:02:07;1.05;;;0.95;;
83241;SDS011;73133;47.848;9.000;2023-11-19T18:04:32;1.48;;;1.13;;
83241;SDS011;73133;47.848;9.000;2023-11-19T18:06:58;1.37;;;0.80;;
83241;SDS011;73133;47.848;9.000;2023-11-19T18:09:23;2.60;;;0.63;;
83241;SDS011;73133;47.848;9.000;2023-11-19T18:11:51;5.60;;;1.42;;
83241;SDS011;73133;47.848;9.000;2023-11-19T18:14:17;3.08;;;0.80;;
83241;SDS011;73133;47.848;9.000;2023-11-19T18:16:43;1.20;;;0.65;;
83241;SDS011;73133;47.848;9.000;2023-11-19T18:19:09;2.90;;;0.80;;
83241;SDS011;73133;47.848;9.000;2023-11-19T18:24:00;2.07;;;0.80;;
83241;SDS011;73133;47.848;9.000;2023-11-19T18:26:26;4.85;;;0.80;;
83241;SDS011;73133;47.848;9.000;2023-11-19T18:28:52;2.05;;;0.65;;
83241;SDS011;73133;47.848;9.000;2023-11-19T18:31:18;1.90;;;0.70;;
83241;SDS011;73133;47.848;9.000;2023-11-19T18:33:44;0.60;;;0.52;;
83241;SDS011;73133;47.848;9.000;2023-11-19T18:36:09;0.65;;;0.50;;
83241;SDS011;73133;47.848;9.000;2023-11-19T18:41:04;2.05;;;0.52;;
83241;SDS011;73133;47.848;9.000;2023-11-19T18:43:30;1.05;;;0.63;;
83241;SDS011;73133;47.848;9.000;2023-11-19T18:45:55;1.35;;;0.95;;
83241;SDS011;73133;47.848;9.000;2023-11-19T18:48:21;3.63;;;0.60;;
83241;SDS011;73133;47.848;9.000;2023-11-19T18:50:46;1.27;;;0.68;;
83241;SDS011;73133;47.848;9.000;2023-11-19T18:53:12;0.75;;;0.65;;
83241;SDS011;73133;47.848;9.000;2023-11-19T18:55:37;0.98;;;0.60;;
83241;SDS011;73133;47.848;9.000;2023-11-19T18:58:03;0.68;;;0.60;;
83241;SDS011;73133;47.848;9.000;2023-11-19T19:00:29;1.95;;;0.50;;
83241;SDS011;73133;47.848;9.000;2023-11-19T19:02:54;1.73;;;0.60;;
83241;SDS011;73133;47.848;9.000;2023-11-19T19:05:19;5.60;;;0.70;;
83241;SDS011;73133;47.848;9.000;2023-11-19T19:07:45;2.45;;;0.60;;
83241;SDS011;73133;47.848;9.000;2023-11-19T19:10:10;4.55;;;0.60;;
83241;SDS011;73133;47.848;9.000;2023-11-19T19:12:39;1.10;;;0.52;;
83241;SDS011;73133;47.848;9.000;2023-11-19T19:15:07;6.38;;;0.98;;
83241;SDS011;73133;47.848;9.000;2023-11-19T19:17:36;1.42;;;0.68;;
83241;SDS011;73133;47.848;9.000;2023-11-19T19:20:02;1.17;;;0.63;;
83241;SDS011;73133;47.848;9.000;2023-11-19T19:22:28;2.70;;;1.25;;
83241;SDS011;73133;47.848;9.000;2023-11-19T19:24:54;3.10;;;0.90;;
83241;SDS011;73133;47.848;9.000;2023-11-19T19:27:20;3.00;;;0.68;;
83241;SDS011;73133;47.848;9.000;2023-11-19T19:29:46;1.48;;;0.82;;
83241;SDS011;73133;47.848;9.000;2023-11-19T19:32:11;2.47;;;1.10;;
83241;SDS011;73133;47.848;9.000;2023-11-19T19:34:36;1.20;;;0.80;;
83241;SDS011;73133;47.848;9.000;2023-11-19T19:37:02;1.00;;;0.80;;
83241;SDS011;73133;47.848;9.000;2023-11-19T19:39:28;2.65;;;1.10;;
83241;SDS011;73133;47.848;9.000;2023-11-19T19:41:54;1.52;;;0.88;;
83241;SDS011;73133;47.848;9.000;2023-11-19T19:44:19;4.28;;;1.00;;
83241;SDS011;73133;47.848;9.000;2023-11-19T19:46:47;1.70;;;1.02;;
83241;SDS011;73133;47.848;9.000;2023-11-19T19:49:12;1.50;;;0.93;;
83241;SDS011;73133;47.848;9.000;2023-11-19T19:51:38;6.75;;;1.35;;
83241;SDS011;73133;47.848;9.000;2023-11-19T19:54:03;1.33;;;0.95;;
83241;SDS011;73133;47.848;9.000;2023-11-19T19:56:29;1.80;;;1.02;;
83241;SDS011;73133;47.848;9.000;2023-11-19T19:58:54;1.42;;;1.23;;
83241;SDS011;73133;47.848;9.000;2023-11-19T20:01:20;1.48;;;0.70;;
83241;SDS011;73133;47.848;9.000;2023-11-19T20:03:45;2.63;;;0.60;;
83241;SDS011;73133;47.848;9.000;2023-11-19T20:06:10;0.80;;;0.63;;
83241;SDS011;73133;47.848;9.000;2023-11-19T20:08:39;0.60;;;0.47;;
83241;SDS011;73133;47.848;9.000;2023-11-19T20:11:05;4.40;;;0.80;;
83241;SDS011;73133;47.848;9.000;2023-11-19T20:13:34;3.13;;;0.95;;
83241;SDS011;73133;47.848;9.000;2023-11-19T20:16:00;1.00;;;0.75;;
83241;SDS011;73133;47.848;9.000;2023-11-19T20:20:54;1.15;;;0.60;;
83241;SDS011;73133;47.848;9.000;2023-11-19T20:23:19;1.45;;;0.70;;
83241;SDS011;73133;47.848;9.000;2023-11-19T20:25:45;3.92;;;0.70;;
83241;SDS011;73133;47.848;9.000;2023-11-19T20:28:10;0.93;;;0.50;;
83241;SDS011;73133;47.848;9.000;2023-11-19T20:30:36;2.38;;;0.57;;
83241;SDS011;73133;47.848;9.000;2023-11-19T20:33:01;0.45;;;0.45;;
83241;SDS011;73133;47.848;9.000;2023-11-19T20:35:27;1.70;;;0.60;;
83241;SDS011;73133;47.848;9.000;2023-11-19T20:37:52;0.77;;;0.50;;